Terminal Aerodrome Forecast
Issued by NWS Paducah, KY

Home | Current Version | Previous Version | Graphics & Text | Print | Product List | Glossary On
Versions: 1 2 3 4 5 6 7 8 9 10 11 12 13 14 15 16 17 18 19 20 21 22 23 24 25
083
FTUS43 KPAH 261726
TAFPAH
TAF
KPAH 261726Z 2618/2718 34008KT 6SM -SHRA VCTS OVC019CB
     FM261900 VRB15G25KT 2SM +TSRA OVC011CB
      TEMPO 2620/2624 5SM -TSRA OVC022CB
     FM270000 15006KT P6SM BKN080
     FM271300 18009KT 4SM TSRA OVC025CB=

USA.gov is the U.S. government's official web portal to all federal, state and local government web resources and services.